sensor_id;sensor_type;location;lat;lon;timestamp;P1;durP1;ratioP1;P2;durP2;ratioP2
24559;SDS011;12727;49.934;8.656;2023-07-31T00:01:21;4.35;;;1.30;;
24559;SDS011;12727;49.934;8.656;2023-07-31T00:03:46;2.75;;;1.52;;
24559;SDS011;12727;49.934;8.656;2023-07-31T00:06:12;5.85;;;1.30;;
24559;SDS011;12727;49.934;8.656;2023-07-31T00:08:38;5.35;;;1.50;;
24559;SDS011;12727;49.934;8.656;2023-07-31T00:11:03;3.03;;;1.05;;
24559;SDS011;12727;49.934;8.656;2023-07-31T00:13:29;5.10;;;1.50;;
24559;SDS011;12727;49.934;8.656;2023-07-31T00:15:55;4.47;;;1.60;;
24559;SDS011;12727;49.934;8.656;2023-07-31T00:18:21;3.20;;;1.13;;
24559;SDS011;12727;49.934;8.656;2023-07-31T00:20:46;5.05;;;1.35;;
24559;SDS011;12727;49.934;8.656;2023-07-31T00:23:12;3.42;;;1.17;;
24559;SDS011;12727;49.934;8.656;2023-07-31T00:25:38;5.13;;;1.50;;
24559;SDS011;12727;49.934;8.656;2023-07-31T00:28:03;4.20;;;1.27;;
24559;SDS011;12727;49.934;8.656;2023-07-31T00:30:29;3.00;;;1.20;;
24559;SDS011;12727;49.934;8.656;2023-07-31T00:32:55;4.85;;;1.70;;
24559;SDS011;12727;49.934;8.656;2023-07-31T00:35:20;4.20;;;1.35;;
24559;SDS011;12727;49.934;8.656;2023-07-31T00:37:46;4.13;;;1.50;;
24559;SDS011;12727;49.934;8.656;2023-07-31T00:40:11;8.57;;;1.63;;
24559;SDS011;12727;49.934;8.656;2023-07-31T00:42:38;5.07;;;1.52;;
24559;SDS011;12727;49.934;8.656;2023-07-31T00:45:04;6.80;;;1.20;;
24559;SDS011;12727;49.934;8.656;2023-07-31T00:47:30;4.70;;;1.05;;
24559;SDS011;12727;49.934;8.656;2023-07-31T00:49:56;5.38;;;1.50;;
24559;SDS011;12727;49.934;8.656;2023-07-31T00:52:22;4.75;;;1.20;;
24559;SDS011;12727;49.934;8.656;2023-07-31T00:54:48;5.15;;;1.30;;
24559;SDS011;12727;49.934;8.656;2023-07-31T00:57:14;5.82;;;1.65;;
24559;SDS011;12727;49.934;8.656;2023-07-31T00:59:40;4.07;;;1.65;;
24559;SDS011;12727;49.934;8.656;2023-07-31T01:02:06;3.22;;;1.23;;
24559;SDS011;12727;49.934;8.656;2023-07-31T01:04:31;7.30;;;1.25;;
24559;SDS011;12727;49.934;8.656;2023-07-31T01:07:07;5.65;;;1.63;;
24559;SDS011;12727;49.934;8.656;2023-07-31T01:09:45;6.00;;;1.70;;
24559;SDS011;12727;49.934;8.656;2023-07-31T01:12:18;4.90;;;1.25;;
24559;SDS011;12727;49.934;8.656;2023-07-31T01:15:07;3.85;;;1.60;;
24559;SDS011;12727;49.934;8.656;2023-07-31T01:17:35;4.45;;;1.38;;
24559;SDS011;12727;49.934;8.656;2023-07-31T01:20:02;4.18;;;1.40;;
24559;SDS011;12727;49.934;8.656;2023-07-31T01:25:45;5.63;;;1.20;;
24559;SDS011;12727;49.934;8.656;2023-07-31T01:28:20;4.97;;;1.60;;
24559;SDS011;12727;49.934;8.656;2023-07-31T01:30:50;4.00;;;1.52;;
24559;SDS011;12727;49.934;8.656;2023-07-31T01:33:16;4.05;;;1.33;;
24559;SDS011;12727;49.934;8.656;2023-07-31T01:35:43;5.80;;;1.33;;
24559;SDS011;12727;49.934;8.656;2023-07-31T01:38:11;5.22;;;1.23;;
24559;SDS011;12727;49.934;8.656;2023-07-31T01:40:37;6.45;;;1.42;;
24559;SDS011;12727;49.934;8.656;2023-07-31T01:43:02;3.85;;;1.38;;
24559;SDS011;12727;49.934;8.656;2023-07-31T01:45:28;4.85;;;1.33;;
24559;SDS011;12727;49.934;8.656;2023-07-31T01:47:53;5.28;;;1.60;;
24559;SDS011;12727;49.934;8.656;2023-07-31T01:50:19;5.25;;;1.33;;
24559;SDS011;12727;49.934;8.656;2023-07-31T01:52:44;4.38;;;1.50;;
24559;SDS011;12727;49.934;8.656;2023-07-31T01:55:10;5.90;;;1.60;;
24559;SDS011;12727;49.934;8.656;2023-07-31T01:57:36;7.32;;;1.80;;
24559;SDS011;12727;49.934;8.656;2023-07-31T02:00:02;4.03;;;1.50;;
24559;SDS011;12727;49.934;8.656;2023-07-31T02:02:28;3.58;;;1.25;;
24559;SDS011;12727;49.934;8.656;2023-07-31T02:04:54;7.95;;;1.60;;
24559;SDS011;12727;49.934;8.656;2023-07-31T02:07:19;5.95;;;1.67;;
24559;SDS011;12727;49.934;8.656;2023-07-31T02:09:45;6.03;;;1.80;;
24559;SDS011;12727;49.934;8.656;2023-07-31T02:12:12;4.32;;;1.73;;
24559;SDS011;12727;49.934;8.656;2023-07-31T02:14:39;5.32;;;1.60;;
24559;SDS011;12727;49.934;8.656;2023-07-31T02:17:05;5.07;;;1.75;;
24559;SDS011;12727;49.934;8.656;2023-07-31T02:19:31;4.80;;;1.85;;
24559;SDS011;12727;49.934;8.656;2023-07-31T02:21:56;5.40;;;1.60;;
24559;SDS011;12727;49.934;8.656;2023-07-31T02:24:22;4.80;;;1.40;;
24559;SDS011;12727;49.934;8.656;2023-07-31T02:26:49;4.38;;;1.60;;
24559;SDS011;12727;49.934;8.656;2023-07-31T02:29:14;5.63;;;1.60;;
24559;SDS011;12727;49.934;8.656;2023-07-31T02:31:40;5.32;;;1.60;;
24559;SDS011;12727;49.934;8.656;2023-07-31T02:34:05;3.85;;;1.65;;
24559;SDS011;12727;49.934;8.656;2023-07-31T02:36:31;6.03;;;1.92;;
24559;SDS011;12727;49.934;8.656;2023-07-31T02:38:57;4.03;;;1.30;;
24559;SDS011;12727;49.934;8.656;2023-07-31T02:41:22;6.45;;;1.63;;
24559;SDS011;12727;49.934;8.656;2023-07-31T02:43:48;4.72;;;1.85;;
24559;SDS011;12727;49.934;8.656;2023-07-31T02:46:13;8.68;;;1.80;;
24559;SDS011;12727;49.934;8.656;2023-07-31T02:48:39;4.00;;;1.80;;
24559;SDS011;12727;49.934;8.656;2023-07-31T02:51:04;4.57;;;1.73;;
24559;SDS011;12727;49.934;8.656;2023-07-31T02:53:30;6.22;;;1.80;;
24559;SDS011;12727;49.934;8.656;2023-07-31T02:55:55;6.38;;;1.80;;
24559;SDS011;12727;49.934;8.656;2023-07-31T02:58:21;4.43;;;1.63;;
24559;SDS011;12727;49.934;8.656;2023-07-31T03:00:47;5.35;;;1.88;;
24559;SDS011;12727;49.934;8.656;2023-07-31T03:03:12;3.17;;;1.88;;
24559;SDS011;12727;49.934;8.656;2023-07-31T03:05:38;5.03;;;1.90;;
24559;SDS011;12727;49.934;8.656;2023-07-31T03:08:04;5.88;;;2.30;;
24559;SDS011;12727;49.934;8.656;2023-07-31T03:10:29;6.15;;;2.13;;
24559;SDS011;12727;49.934;8.656;2023-07-31T03:12:55;5.68;;;1.63;;
24559;SDS011;12727;49.934;8.656;2023-07-31T03:15:20;4.55;;;1.90;;
24559;SDS011;12727;49.934;8.656;2023-07-31T03:17:46;6.53;;;1.63;;
24559;SDS011;12727;49.934;8.656;2023-07-31T03:20:11;5.30;;;1.88;;
24559;SDS011;12727;49.934;8.656;2023-07-31T03:22:37;6.70;;;1.85;;
24559;SDS011;12727;49.934;8.656;2023-07-31T03:25:03;8.15;;;1.90;;
24559;SDS011;12727;49.934;8.656;2023-07-31T03:27:29;6.15;;;1.73;;
24559;SDS011;12727;49.934;8.656;2023-07-31T03:29:54;4.57;;;1.80;;
24559;SDS011;12727;49.934;8.656;2023-07-31T03:32:20;6.55;;;2.00;;
24559;SDS011;12727;49.934;8.656;2023-07-31T03:34:46;4.93;;;1.70;;
24559;SDS011;12727;49.934;8.656;2023-07-31T03:37:11;6.25;;;2.08;;
24559;SDS011;12727;49.934;8.656;2023-07-31T03:39:37;6.50;;;1.90;;
24559;SDS011;12727;49.934;8.656;2023-07-31T03:42:03;5.60;;;1.80;;
24559;SDS011;12727;49.934;8.656;2023-07-31T03:44:29;6.55;;;1.75;;
24559;SDS011;12727;49.934;8.656;2023-07-31T03:46:54;6.38;;;1.65;;
24559;SDS011;12727;49.934;8.656;2023-07-31T03:49:20;4.22;;;1.73;;
24559;SDS011;12727;49.934;8.656;2023-07-31T03:51:45;4.82;;;1.85;;
24559;SDS011;12727;49.934;8.656;2023-07-31T03:54:11;4.70;;;1.80;;
24559;SDS011;12727;49.934;8.656;2023-07-31T03:56:38;7.93;;;1.70;;
24559;SDS011;12727;49.934;8.656;2023-07-31T03:59:03;4.82;;;1.75;;
24559;SDS011;12727;49.934;8.656;2023-07-31T04:01:29;5.18;;;1.77;;
24559;SDS011;12727;49.934;8.656;2023-07-31T04:03:54;4.93;;;2.20;;
24559;SDS011;12727;49.934;8.656;2023-07-31T04:06:20;7.60;;;2.42;;
24559;SDS011;12727;49.934;8.656;2023-07-31T04:08:46;5.68;;;1.95;;
24559;SDS011;12727;49.934;8.656;2023-07-31T04:11:11;7.32;;;2.10;;
24559;SDS011;12727;49.934;8.656;2023-07-31T04:13:40;6.35;;;2.05;;
24559;SDS011;12727;49.934;8.656;2023-07-31T04:16:05;6.85;;;2.15;;
24559;SDS011;12727;49.934;8.656;2023-07-31T04:18:31;8.32;;;2.08;;
24559;SDS011;12727;49.934;8.656;2023-07-31T04:20:57;7.50;;;2.10;;
24559;SDS011;12727;49.934;8.656;2023-07-31T04:23:23;9.00;;;2.65;;
24559;SDS011;12727;49.934;8.656;2023-07-31T04:25:50;5.75;;;2.28;;
24559;SDS011;12727;49.934;8.656;2023-07-31T04:28:16;6.63;;;2.60;;
24559;SDS011;12727;49.934;8.656;2023-07-31T04:30:41;6.57;;;2.17;;
24559;SDS011;12727;49.934;8.656;2023-07-31T04:33:07;4.53;;;2.00;;
24559;SDS011;12727;49.934;8.656;2023-07-31T04:35:33;7.65;;;2.13;;
24559;SDS011;12727;49.934;8.656;2023-07-31T04:37:58;7.97;;;2.13;;
24559;SDS011;12727;49.934;8.656;2023-07-31T04:40:24;4.15;;;1.95;;
24559;SDS011;12727;49.934;8.656;2023-07-31T04:42:49;7.57;;;2.28;;
24559;SDS011;12727;49.934;8.656;2023-07-31T04:45:15;5.88;;;2.47;;
24559;SDS011;12727;49.934;8.656;2023-07-31T04:47:41;6.30;;;2.50;;
24559;SDS011;12727;49.934;8.656;2023-07-31T04:50:07;7.07;;;1.90;;
24559;SDS011;12727;49.934;8.656;2023-07-31T04:52:32;6.90;;;2.00;;
24559;SDS011;12727;49.934;8.656;2023-07-31T04:54:58;4.97;;;1.77;;
24559;SDS011;12727;49.934;8.656;2023-07-31T04:57:24;4.43;;;2.15;;
24559;SDS011;12727;49.934;8.656;2023-07-31T04:59:49;4.90;;;2.25;;
24559;SDS011;12727;49.934;8.656;2023-07-31T05:02:15;5.22;;;1.90;;
24559;SDS011;12727;49.934;8.656;2023-07-31T05:04:41;5.65;;;2.22;;
24559;SDS011;12727;49.934;8.656;2023-07-31T05:07:06;5.88;;;2.13;;
24559;SDS011;12727;49.934;8.656;2023-07-31T05:09:32;4.68;;;2.33;;
24559;SDS011;12727;49.934;8.656;2023-07-31T05:11:57;5.78;;;2.05;;
24559;SDS011;12727;49.934;8.656;2023-07-31T05:14:23;3.95;;;1.80;;
24559;SDS011;12727;49.934;8.656;2023-07-31T05:16:49;6.03;;;2.00;;
24559;SDS011;12727;49.934;8.656;2023-07-31T05:19:14;10.32;;;2.28;;
24559;SDS011;12727;49.934;8.656;2023-07-31T05:21:40;3.92;;;1.77;;
24559;SDS011;12727;49.934;8.656;2023-07-31T05:24:06;4.80;;;1.95;;
24559;SDS011;12727;49.934;8.656;2023-07-31T05:26:31;6.35;;;2.20;;
24559;SDS011;12727;49.934;8.656;2023-07-31T05:28:57;4.97;;;2.03;;
24559;SDS011;12727;49.934;8.656;2023-07-31T05:31:23;4.00;;;2.00;;
24559;SDS011;12727;49.934;8.656;2023-07-31T05:33:49;5.28;;;1.92;;
24559;SDS011;12727;49.934;8.656;2023-07-31T05:36:15;6.60;;;1.98;;
24559;SDS011;12727;49.934;8.656;2023-07-31T05:38:41;5.53;;;1.95;;
24559;SDS011;12727;49.934;8.656;2023-07-31T05:41:09;6.32;;;2.30;;
24559;SDS011;12727;49.934;8.656;2023-07-31T05:43:35;2.97;;;1.60;;
24559;SDS011;12727;49.934;8.656;2023-07-31T05:46:01;8.05;;;1.98;;
24559;SDS011;12727;49.934;8.656;2023-07-31T05:48:27;5.72;;;1.90;;
24559;SDS011;12727;49.934;8.656;2023-07-31T05:50:52;8.30;;;2.25;;
24559;SDS011;12727;49.934;8.656;2023-07-31T05:53:18;5.63;;;1.90;;
24559;SDS011;12727;49.934;8.656;2023-07-31T05:55:44;6.65;;;1.80;;
24559;SDS011;12727;49.934;8.656;2023-07-31T05:58:09;5.93;;;2.20;;
24559;SDS011;12727;49.934;8.656;2023-07-31T06:00:35;5.50;;;1.92;;
24559;SDS011;12727;49.934;8.656;2023-07-31T06:03:01;5.00;;;1.92;;
24559;SDS011;12727;49.934;8.656;2023-07-31T06:05:26;4.90;;;1.95;;
24559;SDS011;12727;49.934;8.656;2023-07-31T06:07:54;5.45;;;2.08;;
24559;SDS011;12727;49.934;8.656;2023-07-31T06:10:19;5.65;;;2.00;;
24559;SDS011;12727;49.934;8.656;2023-07-31T06:12:45;5.57;;;2.00;;
24559;SDS011;12727;49.934;8.656;2023-07-31T06:15:11;5.32;;;2.33;;
24559;SDS011;12727;49.934;8.656;2023-07-31T06:17:36;8.90;;;1.98;;
24559;SDS011;12727;49.934;8.656;2023-07-31T06:20:02;6.13;;;2.17;;
24559;SDS011;12727;49.934;8.656;2023-07-31T06:22:31;4.57;;;2.00;;
24559;SDS011;12727;49.934;8.656;2023-07-31T06:24:57;4.60;;;1.70;;
24559;SDS011;12727;49.934;8.656;2023-07-31T06:27:23;5.40;;;1.65;;
24559;SDS011;12727;49.934;8.656;2023-07-31T06:29:48;6.38;;;1.77;;
24559;SDS011;12727;49.934;8.656;2023-07-31T06:32:14;4.85;;;2.47;;
24559;SDS011;12727;49.934;8.656;2023-07-31T06:34:39;4.32;;;2.00;;
24559;SDS011;12727;49.934;8.656;2023-07-31T06:37:05;4.72;;;1.98;;
24559;SDS011;12727;49.934;8.656;2023-07-31T06:39:31;5.40;;;2.08;;
24559;SDS011;12727;49.934;8.656;2023-07-31T06:41:56;6.75;;;1.90;;
24559;SDS011;12727;49.934;8.656;2023-07-31T06:44:22;7.22;;;2.05;;
24559;SDS011;12727;49.934;8.656;2023-07-31T06:46:47;5.65;;;2.08;;
24559;SDS011;12727;49.934;8.656;2023-07-31T06:49:13;8.35;;;2.20;;
24559;SDS011;12727;49.934;8.656;2023-07-31T06:51:40;6.30;;;2.08;;
24559;SDS011;12727;49.934;8.656;2023-07-31T06:54:07;6.18;;;1.90;;
24559;SDS011;12727;49.934;8.656;2023-07-31T06:56:33;5.03;;;2.08;;
24559;SDS011;12727;49.934;8.656;2023-07-31T06:58:59;6.65;;;1.80;;
24559;SDS011;12727;49.934;8.656;2023-07-31T07:01:25;6.07;;;2.13;;
24559;SDS011;12727;49.934;8.656;2023-07-31T07:03:50;5.30;;;2.10;;
24559;SDS011;12727;49.934;8.656;2023-07-31T07:06:17;8.93;;;2.25;;
24559;SDS011;12727;49.934;8.656;2023-07-31T07:08:43;6.80;;;2.20;;
24559;SDS011;12727;49.934;8.656;2023-07-31T07:11:08;8.63;;;2.22;;
24559;SDS011;12727;49.934;8.656;2023-07-31T07:13:34;7.38;;;2.30;;
24559;SDS011;12727;49.934;8.656;2023-07-31T07:15:59;6.78;;;2.00;;
24559;SDS011;12727;49.934;8.656;2023-07-31T07:18:25;4.72;;;2.10;;
24559;SDS011;12727;49.934;8.656;2023-07-31T07:20:51;5.20;;;2.10;;
24559;SDS011;12727;49.934;8.656;2023-07-31T07:23:18;6.68;;;2.10;;
24559;SDS011;12727;49.934;8.656;2023-07-31T07:25:45;4.57;;;2.03;;
24559;SDS011;12727;49.934;8.656;2023-07-31T07:28:12;4.10;;;1.92;;
24559;SDS011;12727;49.934;8.656;2023-07-31T07:30:38;5.60;;;2.10;;
24559;SDS011;12727;49.934;8.656;2023-07-31T07:33:04;8.18;;;2.22;;
24559;SDS011;12727;49.934;8.656;2023-07-31T07:35:30;6.43;;;2.30;;
24559;SDS011;12727;49.934;8.656;2023-07-31T07:37:57;7.25;;;2.17;;
24559;SDS011;12727;49.934;8.656;2023-07-31T07:40:23;5.32;;;2.00;;
24559;SDS011;12727;49.934;8.656;2023-07-31T07:42:49;4.03;;;2.17;;
24559;SDS011;12727;49.934;8.656;2023-07-31T07:45:15;6.05;;;2.00;;
24559;SDS011;12727;49.934;8.656;2023-07-31T07:47:41;5.38;;;1.90;;
24559;SDS011;12727;49.934;8.656;2023-07-31T07:50:07;6.50;;;2.17;;
24559;SDS011;12727;49.934;8.656;2023-07-31T07:52:33;7.13;;;2.20;;
24559;SDS011;12727;49.934;8.656;2023-07-31T07:54:59;8.25;;;2.15;;
24559;SDS011;12727;49.934;8.656;2023-07-31T07:57:25;6.22;;;1.92;;
24559;SDS011;12727;49.934;8.656;2023-07-31T07:59:51;6.38;;;2.10;;
24559;SDS011;12727;49.934;8.656;2023-07-31T08:02:17;5.63;;;2.15;;
24559;SDS011;12727;49.934;8.656;2023-07-31T08:04:43;7.68;;;1.90;;
24559;SDS011;12727;49.934;8.656;2023-07-31T08:07:11;3.78;;;2.00;;
24559;SDS011;12727;49.934;8.656;2023-07-31T08:09:38;5.95;;;2.33;;
24559;SDS011;12727;49.934;8.656;2023-07-31T08:12:04;4.95;;;2.40;;
24559;SDS011;12727;49.934;8.656;2023-07-31T08:14:30;7.75;;;2.45;;
24559;SDS011;12727;49.934;8.656;2023-07-31T08:16:56;6.30;;;2.00;;
24559;SDS011;12727;49.934;8.656;2023-07-31T08:19:22;4.43;;;1.90;;
24559;SDS011;12727;49.934;8.656;2023-07-31T08:21:47;4.45;;;1.90;;
24559;SDS011;12727;49.934;8.656;2023-07-31T08:24:13;4.93;;;1.83;;
24559;SDS011;12727;49.934;8.656;2023-07-31T08:26:38;4.47;;;1.70;;
24559;SDS011;12727;49.934;8.656;2023-07-31T08:29:04;5.18;;;1.80;;
24559;SDS011;12727;49.934;8.656;2023-07-31T08:31:30;5.68;;;2.13;;
24559;SDS011;12727;49.934;8.656;2023-07-31T08:33:56;6.72;;;2.10;;
24559;SDS011;12727;49.934;8.656;2023-07-31T08:36:21;3.50;;;2.00;;
24559;SDS011;12727;49.934;8.656;2023-07-31T08:38:47;4.90;;;2.33;;
24559;SDS011;12727;49.934;8.656;2023-07-31T08:41:13;4.10;;;2.00;;
24559;SDS011;12727;49.934;8.656;2023-07-31T08:43:38;6.00;;;1.77;;
24559;SDS011;12727;49.934;8.656;2023-07-31T08:46:04;4.60;;;1.77;;
24559;SDS011;12727;49.934;8.656;2023-07-31T08:48:31;5.85;;;2.10;;
24559;SDS011;12727;49.934;8.656;2023-07-31T08:50:58;10.20;;;2.13;;
24559;SDS011;12727;49.934;8.656;2023-07-31T08:53:24;4.60;;;2.03;;
24559;SDS011;12727;49.934;8.656;2023-07-31T08:55:50;6.25;;;1.98;;
24559;SDS011;12727;49.934;8.656;2023-07-31T08:58:18;2.95;;;1.65;;
24559;SDS011;12727;49.934;8.656;2023-07-31T09:00:45;6.45;;;1.98;;
24559;SDS011;12727;49.934;8.656;2023-07-31T09:03:16;4.63;;;1.90;;
24559;SDS011;12727;49.934;8.656;2023-07-31T09:05:44;4.85;;;1.60;;
24559;SDS011;12727;49.934;8.656;2023-07-31T09:08:12;4.82;;;2.15;;
24559;SDS011;12727;49.934;8.656;2023-07-31T09:10:40;6.45;;;2.25;;
24559;SDS011;12727;49.934;8.656;2023-07-31T09:13:11;4.53;;;1.88;;
24559;SDS011;12727;49.934;8.656;2023-07-31T09:15:37;6.40;;;2.20;;
24559;SDS011;12727;49.934;8.656;2023-07-31T09:18:04;4.20;;;1.70;;
24559;SDS011;12727;49.934;8.656;2023-07-31T09:20:30;6.63;;;2.45;;
24559;SDS011;12727;49.934;8.656;2023-07-31T09:22:57;6.88;;;2.30;;
24559;SDS011;12727;49.934;8.656;2023-07-31T09:25:36;5.78;;;2.30;;
24559;SDS011;12727;49.934;8.656;2023-07-31T09:28:06;5.22;;;2.28;;
24559;SDS011;12727;49.934;8.656;2023-07-31T09:30:49;6.20;;;2.10;;
24559;SDS011;12727;49.934;8.656;2023-07-31T09:33:16;4.05;;;2.00;;
24559;SDS011;12727;49.934;8.656;2023-07-31T09:35:42;6.13;;;2.38;;
24559;SDS011;12727;49.934;8.656;2023-07-31T09:38:09;5.78;;;1.85;;
24559;SDS011;12727;49.934;8.656;2023-07-31T09:40:37;6.80;;;2.33;;
24559;SDS011;12727;49.934;8.656;2023-07-31T09:43:12;4.95;;;1.77;;
24559;SDS011;12727;49.934;8.656;2023-07-31T09:45:40;3.85;;;1.63;;
24559;SDS011;12727;49.934;8.656;2023-07-31T09:48:07;5.93;;;2.20;;
24559;SDS011;12727;49.934;8.656;2023-07-31T09:50:41;4.97;;;1.92;;
24559;SDS011;12727;49.934;8.656;2023-07-31T09:53:08;6.28;;;2.20;;
24559;SDS011;12727;49.934;8.656;2023-07-31T09:55:36;9.10;;;3.88;;
24559;SDS011;12727;49.934;8.656;2023-07-31T09:58:03;9.25;;;3.88;;
24559;SDS011;12727;49.934;8.656;2023-07-31T10:00:30;6.38;;;2.25;;
24559;SDS011;12727;49.934;8.656;2023-07-31T10:03:00;6.10;;;2.38;;
24559;SDS011;12727;49.934;8.656;2023-07-31T10:05:31;5.63;;;2.20;;
24559;SDS011;12727;49.934;8.656;2023-07-31T10:07:58;5.60;;;2.55;;
24559;SDS011;12727;49.934;8.656;2023-07-31T10:10:24;8.32;;;2.40;;
24559;SDS011;12727;49.934;8.656;2023-07-31T10:12:51;8.52;;;2.50;;
24559;SDS011;12727;49.934;8.656;2023-07-31T10:15:17;6.75;;;2.60;;
24559;SDS011;12727;49.934;8.656;2023-07-31T10:17:44;7.85;;;2.20;;
24559;SDS011;12727;49.934;8.656;2023-07-31T10:20:12;4.60;;;1.90;;
24559;SDS011;12727;49.934;8.656;2023-07-31T10:22:39;5.97;;;2.60;;
24559;SDS011;12727;49.934;8.656;2023-07-31T10:25:06;7.63;;;2.50;;
24559;SDS011;12727;49.934;8.656;2023-07-31T10:27:34;8.88;;;2.60;;
24559;SDS011;12727;49.934;8.656;2023-07-31T10:30:01;7.45;;;2.42;;
24559;SDS011;12727;49.934;8.656;2023-07-31T10:32:30;5.90;;;2.50;;
24559;SDS011;12727;49.934;8.656;2023-07-31T10:34:57;5.70;;;2.22;;
24559;SDS011;12727;49.934;8.656;2023-07-31T10:37:24;4.90;;;1.92;;
24559;SDS011;12727;49.934;8.656;2023-07-31T10:42:31;7.18;;;2.42;;
24559;SDS011;12727;49.934;8.656;2023-07-31T10:45:04;5.45;;;1.98;;
24559;SDS011;12727;49.934;8.656;2023-07-31T10:47:31;6.50;;;2.05;;
24559;SDS011;12727;49.934;8.656;2023-07-31T10:52:37;6.75;;;2.20;;
24559;SDS011;12727;49.934;8.656;2023-07-31T10:55:13;8.27;;;2.10;;
24559;SDS011;12727;49.934;8.656;2023-07-31T10:57:40;4.82;;;2.38;;
24559;SDS011;12727;49.934;8.656;2023-07-31T11:00:19;5.90;;;2.20;;
24559;SDS011;12727;49.934;8.656;2023-07-31T11:02:56;5.10;;;2.58;;
24559;SDS011;12727;49.934;8.656;2023-07-31T11:05:40;5.72;;;2.05;;
24559;SDS011;12727;49.934;8.656;2023-07-31T11:10:38;4.00;;;1.80;;
24559;SDS011;12727;49.934;8.656;2023-07-31T11:13:04;7.80;;;1.85;;
24559;SDS011;12727;49.934;8.656;2023-07-31T11:15:30;5.55;;;2.40;;
24559;SDS011;12727;49.934;8.656;2023-07-31T11:17:56;6.28;;;2.20;;
24559;SDS011;12727;49.934;8.656;2023-07-31T11:20:24;6.65;;;2.28;;
24559;SDS011;12727;49.934;8.656;2023-07-31T11:22:49;5.88;;;2.20;;
24559;SDS011;12727;49.934;8.656;2023-07-31T11:25:15;4.93;;;2.17;;
24559;SDS011;12727;49.934;8.656;2023-07-31T11:27:42;5.88;;;2.55;;
24559;SDS011;12727;49.934;8.656;2023-07-31T11:30:08;6.15;;;2.40;;
24559;SDS011;12727;49.934;8.656;2023-07-31T11:32:38;4.78;;;1.88;;
24559;SDS011;12727;49.934;8.656;2023-07-31T11:35:04;5.07;;;2.13;;
24559;SDS011;12727;49.934;8.656;2023-07-31T11:37:43;3.28;;;1.83;;
24559;SDS011;12727;49.934;8.656;2023-07-31T11:40:09;4.93;;;1.80;;
24559;SDS011;12727;49.934;8.656;2023-07-31T11:42:36;3.67;;;1.90;;
24559;SDS011;12727;49.934;8.656;2023-07-31T11:45:05;4.55;;;1.88;;
24559;SDS011;12727;49.934;8.656;2023-07-31T11:47:32;8.43;;;2.60;;
24559;SDS011;12727;49.934;8.656;2023-07-31T11:50:00;4.60;;;2.33;;
24559;SDS011;12727;49.934;8.656;2023-07-31T11:52:27;8.07;;;2.15;;
24559;SDS011;12727;49.934;8.656;2023-07-31T11:55:02;5.13;;;2.67;;
24559;SDS011;12727;49.934;8.656;2023-07-31T11:57:28;6.05;;;2.53;;
24559;SDS011;12727;49.934;8.656;2023-07-31T11:59:54;6.45;;;2.20;;
24559;SDS011;12727;49.934;8.656;2023-07-31T12:02:21;5.25;;;2.35;;
24559;SDS011;12727;49.934;8.656;2023-07-31T12:04:47;7.00;;;2.70;;
24559;SDS011;12727;49.934;8.656;2023-07-31T12:07:13;5.05;;;2.20;;
24559;SDS011;12727;49.934;8.656;2023-07-31T12:09:50;5.82;;;1.90;;
24559;SDS011;12727;49.934;8.656;2023-07-31T12:12:20;7.07;;;2.42;;
24559;SDS011;12727;49.934;8.656;2023-07-31T12:14:47;5.25;;;2.47;;
24559;SDS011;12727;49.934;8.656;2023-07-31T12:17:12;3.90;;;2.25;;
24559;SDS011;12727;49.934;8.656;2023-07-31T12:19:39;4.38;;;2.20;;
24559;SDS011;12727;49.934;8.656;2023-07-31T12:22:15;8.75;;;2.92;;
24559;SDS011;12727;49.934;8.656;2023-07-31T12:24:42;4.28;;;2.40;;
24559;SDS011;12727;49.934;8.656;2023-07-31T12:27:12;7.03;;;2.30;;
24559;SDS011;12727;49.934;8.656;2023-07-31T12:29:40;6.72;;;2.50;;
24559;SDS011;12727;49.934;8.656;2023-07-31T12:32:20;7.60;;;2.35;;
24559;SDS011;12727;49.934;8.656;2023-07-31T12:34:47;5.63;;;2.20;;
24559;SDS011;12727;49.934;8.656;2023-07-31T12:37:13;5.88;;;2.30;;
24559;SDS011;12727;49.934;8.656;2023-07-31T12:39:39;4.47;;;2.15;;
24559;SDS011;12727;49.934;8.656;2023-07-31T12:42:05;4.55;;;2.33;;
24559;SDS011;12727;49.934;8.656;2023-07-31T12:44:31;7.47;;;2.72;;
24559;SDS011;12727;49.934;8.656;2023-07-31T12:46:56;4.55;;;2.50;;
24559;SDS011;12727;49.934;8.656;2023-07-31T12:49:22;5.35;;;2.13;;
24559;SDS011;12727;49.934;8.656;2023-07-31T12:51:48;4.57;;;2.08;;
24559;SDS011;12727;49.934;8.656;2023-07-31T12:54:13;5.43;;;2.30;;
24559;SDS011;12727;49.934;8.656;2023-07-31T12:56:39;5.40;;;1.90;;
24559;SDS011;12727;49.934;8.656;2023-07-31T12:59:05;6.72;;;2.28;;
24559;SDS011;12727;49.934;8.656;2023-07-31T13:01:31;6.40;;;2.05;;
24559;SDS011;12727;49.934;8.656;2023-07-31T13:03:57;4.72;;;2.25;;
24559;SDS011;12727;49.934;8.656;2023-07-31T13:06:23;6.35;;;2.30;;
24559;SDS011;12727;49.934;8.656;2023-07-31T13:08:49;10.80;;;2.60;;
24559;SDS011;12727;49.934;8.656;2023-07-31T13:11:15;3.70;;;1.95;;
24559;SDS011;12727;49.934;8.656;2023-07-31T13:13:41;5.68;;;2.03;;
24559;SDS011;12727;49.934;8.656;2023-07-31T13:16:06;5.32;;;2.20;;
24559;SDS011;12727;49.934;8.656;2023-07-31T13:18:32;5.55;;;2.10;;
24559;SDS011;12727;49.934;8.656;2023-07-31T13:20:57;5.03;;;2.17;;
24559;SDS011;12727;49.934;8.656;2023-07-31T13:23:23;4.60;;;2.40;;
24559;SDS011;12727;49.934;8.656;2023-07-31T13:25:48;6.05;;;2.05;;
24559;SDS011;12727;49.934;8.656;2023-07-31T13:28:14;6.10;;;2.30;;
24559;SDS011;12727;49.934;8.656;2023-07-31T13:30:39;6.43;;;2.22;;
24559;SDS011;12727;49.934;8.656;2023-07-31T13:33:05;4.60;;;2.05;;
24559;SDS011;12727;49.934;8.656;2023-07-31T13:35:31;4.50;;;2.08;;
24559;SDS011;12727;49.934;8.656;2023-07-31T13:37:56;3.55;;;1.90;;
24559;SDS011;12727;49.934;8.656;2023-07-31T13:40:22;3.33;;;1.50;;
24559;SDS011;12727;49.934;8.656;2023-07-31T13:42:48;3.65;;;2.15;;
24559;SDS011;12727;49.934;8.656;2023-07-31T13:45:13;6.22;;;1.90;;
24559;SDS011;12727;49.934;8.656;2023-07-31T13:47:39;5.43;;;1.95;;
24559;SDS011;12727;49.934;8.656;2023-07-31T13:50:05;5.07;;;2.10;;
24559;SDS011;12727;49.934;8.656;2023-07-31T13:52:31;5.78;;;2.28;;
24559;SDS011;12727;49.934;8.656;2023-07-31T13:54:56;3.70;;;1.70;;
24559;SDS011;12727;49.934;8.656;2023-07-31T13:57:22;4.07;;;2.03;;
24559;SDS011;12727;49.934;8.656;2023-07-31T13:59:48;3.35;;;1.92;;
24559;SDS011;12727;49.934;8.656;2023-07-31T14:02:14;5.07;;;2.22;;
24559;SDS011;12727;49.934;8.656;2023-07-31T14:04:40;5.88;;;2.15;;
24559;SDS011;12727;49.934;8.656;2023-07-31T14:07:05;3.20;;;1.92;;
24559;SDS011;12727;49.934;8.656;2023-07-31T14:09:32;3.30;;;2.10;;
24559;SDS011;12727;49.934;8.656;2023-07-31T14:11:57;8.57;;;2.17;;
24559;SDS011;12727;49.934;8.656;2023-07-31T14:14:23;2.90;;;2.03;;
24559;SDS011;12727;49.934;8.656;2023-07-31T14:16:48;4.07;;;2.33;;
24559;SDS011;12727;49.934;8.656;2023-07-31T14:19:14;4.10;;;1.83;;
24559;SDS011;12727;49.934;8.656;2023-07-31T14:21:40;5.88;;;1.98;;
24559;SDS011;12727;49.934;8.656;2023-07-31T14:24:05;4.45;;;2.08;;
24559;SDS011;12727;49.934;8.656;2023-07-31T14:26:31;5.45;;;2.50;;
24559;SDS011;12727;49.934;8.656;2023-07-31T14:28:57;5.80;;;2.40;;
24559;SDS011;12727;49.934;8.656;2023-07-31T14:31:22;4.68;;;2.28;;
24559;SDS011;12727;49.934;8.656;2023-07-31T14:33:48;8.88;;;2.50;;
24559;SDS011;12727;49.934;8.656;2023-07-31T14:36:14;6.75;;;2.10;;
24559;SDS011;12727;49.934;8.656;2023-07-31T14:38:40;3.63;;;2.00;;
24559;SDS011;12727;49.934;8.656;2023-07-31T14:41:06;5.32;;;2.25;;
24559;SDS011;12727;49.934;8.656;2023-07-31T14:43:31;5.93;;;1.83;;
24559;SDS011;12727;49.934;8.656;2023-07-31T14:45:57;5.50;;;1.90;;
24559;SDS011;12727;49.934;8.656;2023-07-31T14:48:24;4.35;;;2.15;;
24559;SDS011;12727;49.934;8.656;2023-07-31T14:50:51;6.00;;;1.83;;
24559;SDS011;12727;49.934;8.656;2023-07-31T14:53:16;4.97;;;1.83;;
24559;SDS011;12727;49.934;8.656;2023-07-31T14:55:42;5.40;;;1.98;;